Flight Track Log - Related Links

Times and Time Zones

All times are in EDT time to prevent confusion due to time zone crossing. See the ASQ4219 flight status page for this flight to view local times or setup timezone preferences in your user account.

Time Position Orientation Groundspeed Altitude Reporting Facility
EDT Latitude Longitude Course Direction KTS MPH feet Rate Location/Type
Mon 03:51:00 PM 29.9469 -95.3431 276° West 186 214 900  Level Houston Center
Mon 03:52:18 PM 29.9056 -95.3914 225° Southwest 234 269 2,600 1,886 Climbing Houston Center
Mon 03:53:20 PM 29.8633 -95.4772 240° Southwest 262 302 5,300 2,352 Climbing Houston Center
Mon 03:54:00 PM 30.0386 -95.8623 276° West  Level FlightAware Approximate
Mon 03:54:23 PM 29.8839 -95.5611 286° West 284 327 7,500  Level Houston Center
Mon 03:55:00 PM 30.0496 -95.9953 276° West  Level FlightAware Approximate
Mon 03:55:25 PM 29.9161 -95.6439 294° West 285 328 9,800  Level Houston Center
Mon 03:56:00 PM 30.0735 -96.1249 276° West  Level FlightAware Approximate
Mon 03:56:27 PM 29.9478 -95.7311 293° West 291 335 11,300  Level Houston Center
Mon 03:57:29 PM 29.9850 -95.8311 293° West 329 379 12,300 1,065 Climbing Houston Center
Mon 03:58:31 PM 30.0328 -95.9611 293° West 363 418 13,500 1,065 Climbing Houston Center
Mon 03:59:33 PM 30.0733 -96.0728 293° West 375 432 14,500 968 Climbing Houston Center
Mon 04:00:35 PM 30.0922 -96.1997 280° West 397 457 15,500 919 Climbing Houston Center
Mon 04:01:37 PM 30.1114 -96.3264 280° West 402 463 16,400 968 Climbing Houston Center
Mon 04:02:39 PM 30.1325 -96.4628 280° West 409 471 17,500 1,016 Climbing Houston Center
Mon 04:03:41 PM 30.1522 -96.5936 280° West 410 472 18,500 968 Climbing Houston Center
Mon 04:04:43 PM 30.1722 -96.7250 280° West 410 472 19,500 1,016 Climbing Houston Center
Mon 04:05:45 PM 30.1956 -96.8794 280° West 412 474 20,600 1,016 Climbing Houston Center
Mon 04:06:47 PM 30.2153 -97.0122 280° West 413 475 21,600 968 Climbing Houston Center
Mon 04:07:49 PM 30.2342 -97.1467 279° West 417 480 22,600 677 Climbing Houston Center
Mon 04:08:51 PM 30.2544 -97.2811 280° West 418 481 23,000 435 Climbing Houston Center
Mon 04:09:53 PM 30.2750 -97.4233 280° West 436 502 23,500 823 Climbing Houston Center
Mon 04:10:55 PM 30.2944 -97.5644 279° West 438 504 24,700 1,161 Climbing Houston Center
Mon 04:11:57 PM 30.3144 -97.7003 280° West 427 491 25,900 1,113 Climbing Houston Center
Mon 04:12:59 PM 30.3336 -97.8333 280° West 417 480 27,000 1,016 Climbing Houston Center
Mon 04:14:00 PM 30.3443 -97.9712 278° West  Level FlightAware Approximate
Mon 04:14:01 PM 30.3519 -97.9672 278° West 416 479 28,000  Level Houston Center
Mon 04:15:03 PM 30.3711 -98.1006 279° West 415 478 29,000 1,016 Climbing Houston Center
Mon 04:16:05 PM 30.3925 -98.2572 279° West 418 481 30,100 1,016 Climbing Houston Center
Mon 04:17:07 PM 30.4114 -98.3900 279° West 415 478 31,100 919 Climbing Houston Center
Mon 04:18:09 PM 30.4289 -98.5236 279° West 415 478 32,000 774 Climbing Houston Center
Mon 04:19:11 PM 30.4472 -98.6600 279° West 423 487 32,700 774 Climbing Houston Center
Mon 04:20:13 PM 30.4647 -98.7953 279° West 421 484 33,600 823 Climbing Houston Center
Mon 04:21:15 PM 30.4847 -98.9325 280° West 426 490 34,400 823 Climbing Houston Center
Mon 04:22:17 PM 30.5033 -99.0672 279° West 421 484 35,300 774 Climbing Houston Center
Mon 04:23:19 PM 30.5228 -99.2231 278° West 416 479 36,000 339 Climbing Houston Center
Mon 04:24:21 PM 30.5408 -99.3583 279° West 425 489 36,000  Level Houston Center
Mon 04:25:23 PM 30.5586 -99.4981 278° West 438 504 36,000  Level Houston Center
Mon 04:26:25 PM 30.5781 -99.6419 279° West 452 520 36,000  Level Houston Center
Mon 04:27:27 PM 30.5944 -99.7872 278° West 456 525 36,000  Level Houston Center
Mon 04:28:30 PM 30.6428 -99.9256 292° West 515 593 36,000  Level Houston Center
Mon 04:29:32 PM 30.7044 -100.0894 294° West 469 540 36,000  Level Houston Center
Mon 04:30:34 PM 30.7567 -100.2203 295° West 463 533 36,000  Level Houston Center
Mon 04:31:36 PM 30.8089 -100.3528 295° West 452 520 36,000 -48 Level Houston Center
Mon 04:32:38 PM 30.8622 -100.4869 295° West 451 519 35,900  Descending Houston Center
Mon 04:33:40 PM 30.9136 -100.6292 293° West 473 544 36,000 48 Climbing Houston Center
Mon 04:34:42 PM 30.9758 -100.7875 295° West 439 505 36,000  Level Houston Center
Mon 04:35:44 PM 31.0278 -100.9283 293° West 465 535 36,000  Level Houston Center
Mon 04:36:46 PM 31.0781 -101.0644 293° West 467 537 36,000  Level Houston Center
Mon 04:37:49 PM 31.1303 -101.1953 295° West 444 511 36,000  Level Houston Center
Mon 04:38:51 PM 31.1889 -101.3489 294° West 452 520 36,000  Level Houston Center
Mon 04:39:53 PM 31.2383 -101.4839 293° West 455 524 36,000  Level Houston Center
Mon 04:40:55 PM 31.2861 -101.6186 293° West 453 521 36,000  Level Houston Center
Mon 04:41:57 PM 31.3386 -101.7553 294° West 459 528 36,000  Level Houston Center
Mon 04:42:57 PM 31.3872 -101.8889 293° West 454 522 36,000  Level Albuquerque Center
Mon 04:43:59 PM 31.4383 -102.0364 292° West 463 533 36,000  Level Albuquerque Center
Mon 04:45:00 PM 31.4892 -102.1717 294° West 455 524 36,000  Level Albuquerque Center
Mon 04:46:02 PM 31.5453 -102.3206 294° West 454 522 36,000  Level Albuquerque Center
Mon 04:47:04 PM 31.5936 -102.4561 293° West 456 525 36,000  Level Albuquerque Center
Mon 04:47:49 PM 31.6339 -102.5661 293° West 459 528 36,000  Level Fort Worth Center
Mon 04:48:49 PM 31.6822 -102.7031 293° West 459 528 36,000  Level Fort Worth Center
Mon 04:49:07 PM 31.7008 -102.7575 292° West 458 527 36,000  Level Albuquerque Center
Mon 04:50:09 PM 31.7497 -102.8958 293° West 459 528 36,000  Level Albuquerque Center
Mon 04:51:10 PM 31.7986 -103.0336 293° West 460 529 36,000  Level Albuquerque Center
Mon 04:52:12 PM 31.8450 -103.1631 293° West 459 528 36,000  Level Albuquerque Center
Mon 04:53:14 PM 31.9183 -103.2833 306° West 466 536 36,000  Level Albuquerque Center
Mon 04:54:15 PM 32.0156 -103.3744 322° Northwest 453 521 36,000  Level Albuquerque Center
Mon 04:55:17 PM 32.1356 -103.4861 322° Northwest 455 524 36,000  Level Albuquerque Center
Mon 04:56:19 PM 32.2339 -103.5794 321° Northwest 455 524 36,000  Level Albuquerque Center
Mon 04:57:20 PM 32.3347 -103.6725 322° Northwest 457 526 36,000  Level Albuquerque Center
Mon 04:58:22 PM 32.4331 -103.7644 322° Northwest 454 522 36,000  Level Albuquerque Center
Mon 04:59:24 PM 32.5314 -103.8567 322° Northwest 453 521 36,000  Level Albuquerque Center
Mon 05:00:26 PM 32.6294 -103.9497 321° Northwest 452 520 36,000  Level Albuquerque Center
Mon 05:01:28 PM 32.7511 -104.0594 323° Northwest 451 519 36,000  Level Albuquerque Center
Mon 05:02:29 PM 32.8483 -104.1536 321° Northwest 450 518 36,000  Level Albuquerque Center
Mon 05:03:31 PM 32.9464 -104.2453 322° Northwest 449 517 36,000  Level Albuquerque Center
Mon 05:04:33 PM 33.0536 -104.3400 323° Northwest 445 512 36,000  Level Albuquerque Center
Mon 05:05:34 PM 33.1639 -104.4092 332° Northwest 448 516 36,000  Level Albuquerque Center
Mon 05:06:36 PM 33.2647 -104.4736 332° Northwest 452 520 36,000  Level Albuquerque Center
Mon 05:07:38 PM 33.3800 -104.5344 336° Northwest 452 520 36,000  Level Albuquerque Center
Mon 05:08:39 PM 33.5131 -104.6078 335° Northwest 462 532 36,000  Level Albuquerque Center
Mon 05:09:41 PM 33.6342 -104.6756 335° Northwest 449 517 36,000  Level Albuquerque Center
Mon 05:10:43 PM 33.7489 -104.7331 337° Northwest 449 517 36,000  Level Albuquerque Center
Mon 05:11:44 PM 33.8731 -104.7958 337° Northwest 449 517 36,000  Level Albuquerque Center
Mon 05:12:46 PM 33.9892 -104.8525 338° Northwest 449 517 36,000  Level Albuquerque Center
Mon 05:13:48 PM 34.1011 -104.9050 339° North 443 510 36,000  Level Albuquerque Center
Mon 05:14:49 PM 34.2167 -104.9664 336° Northwest 445 512 36,000  Level Albuquerque Center
Mon 05:15:51 PM 34.3036 -105.0767 314° West 444 511 36,000  Level Albuquerque Center
Mon 05:16:53 PM 34.3933 -105.1814 316° Northwest 444 511 36,000  Level Albuquerque Center
Mon 05:17:54 PM 34.4825 -105.2875 316° Northwest 444 511 36,000  Level Albuquerque Center
Mon 05:18:56 PM 34.5722 -105.3944 316° Northwest 446 513 36,000  Level Albuquerque Center
Mon 05:19:58 PM 34.6769 -105.5192 316° Northwest 446 513 36,000  Level Albuquerque Center
Mon 05:20:59 PM 34.7675 -105.6269 316° Northwest 448 516 36,000  Level Albuquerque Center
Mon 05:22:01 PM 34.8569 -105.7347 315° West 448 516 36,000  Level Albuquerque Center
Mon 05:23:03 PM 34.9467 -105.8436 315° West 450 518 36,000  Level Albuquerque Center
Mon 05:24:05 PM 35.0386 -105.9528 316° Northwest 449 517 36,000  Level Albuquerque Center
Mon 05:25:06 PM 35.1250 -106.0600 315° West 447 514 36,000  Level Albuquerque Center
Mon 05:26:08 PM 35.2136 -106.1683 315° West 447 514 36,000  Level Albuquerque Center
Mon 05:27:10 PM 35.3017 -106.2744 315° West 451 519 36,000  Level Albuquerque Center
Mon 05:28:12 PM 35.3900 -106.3808 316° Northwest 450 518 36,000  Level Albuquerque Center
Mon 05:29:13 PM 35.4772 -106.4881 315° West 448 516 36,000  Level Albuquerque Center
Mon 05:30:15 PM 35.5819 -106.6181 315° West 450 518 36,000  Level Albuquerque Center
Mon 05:31:16 PM 35.6744 -106.7339 315° West 449 517 36,000  Level Albuquerque Center
Mon 05:32:18 PM 35.7581 -106.8375 315° West 447 514 36,000  Level Albuquerque Center
Mon 05:33:20 PM 35.8422 -106.9431 315° West 450 518 36,000  Level Albuquerque Center
Mon 05:34:22 PM 35.9306 -107.0542 314° West 450 518 36,000  Level Albuquerque Center
Mon 05:35:23 PM 36.0175 -107.1636 315° West 448 516 36,000  Level Albuquerque Center
Mon 05:36:25 PM 36.1214 -107.2944 315° West 450 518 36,000  Level Albuquerque Center
Mon 05:37:26 PM 36.2053 -107.4003 315° West 450 518 36,000  Level Albuquerque Center
Mon 05:38:28 PM 36.3028 -107.5253 314° West 452 520 36,000  Level Albuquerque Center
Mon 05:39:30 PM 36.3872 -107.6322 314° West 453 521 36,000  Level Albuquerque Center
Mon 05:39:57 PM 36.4281 -107.6850 314° West 451 519 36,000  Level Denver Center
Mon 05:40:58 PM 36.5119 -107.7917 314° West 453 521 36,000  Level Denver Center
Mon 05:42:00 PM 36.6086 -107.9164 314° West 451 519 36,000  Level Denver Center
Mon 05:43:02 PM 36.6911 -108.0233 314° West 444 511 36,000  Level Denver Center
Mon 05:44:04 PM 36.8006 -108.1378 320° Northwest 460 529 36,000  Level Denver Center
Mon 05:45:06 PM 36.9042 -108.2186 328° Northwest 461 531 36,000  Level Denver Center
Mon 05:46:08 PM 37.0253 -108.3125 328° Northwest 461 531 36,000  Level Denver Center
Mon 05:47:10 PM 37.1297 -108.3931 328° Northwest 461 531 36,000  Level Denver Center
Mon 05:48:11 PM 37.2492 -108.4864 328° Northwest 455 524 36,000  Level Denver Center
Mon 05:49:13 PM 37.3528 -108.5664 328° Northwest 454 522 36,000  Level Denver Center
Mon 05:50:15 PM 37.4739 -108.6617 328° Northwest 458 527 36,000  Level Denver Center
Mon 05:51:17 PM 37.5764 -108.7450 327° Northwest 458 527 36,000  Level Denver Center
Mon 05:52:19 PM 37.6958 -108.8400 328° Northwest 454 522 36,000  Level Denver Center
Mon 05:53:21 PM 37.7992 -108.9219 328° Northwest 457 526 36,000  Level Denver Center
Mon 05:54:23 PM 37.9017 -109.0053 327° Northwest 457 526 36,000  Level Denver Center
Mon 05:55:24 PM 38.0214 -109.1017 328° Northwest 456 525 36,000  Level Denver Center
Mon 05:56:26 PM 38.1225 -109.1867 327° Northwest 461 531 36,000  Level Denver Center
Mon 05:57:28 PM 38.2442 -109.2825 328° Northwest 460 529 36,000  Level Denver Center
Mon 05:58:30 PM 38.3306 -109.3544 327° Northwest 463 533 36,000  Level Denver Center
Mon 05:59:31 PM 38.4353 -109.4403 327° Northwest 465 535 36,000 -97 Level Denver Center
Mon 06:00:34 PM 38.5744 -109.5556 327° Northwest 466 536 35,800 -1,152 Descending Denver Center
Mon 06:01:36 PM 38.6953 -109.6550 327° Northwest 462 532 33,600 -1,805 Descending Denver Center
Mon 06:02:37 PM 38.8025 -109.7433 327° Northwest 470 541 32,100 -780 Descending Denver Center
Mon 06:03:39 PM 38.9069 -109.8314 327° Northwest 470 541 32,000 -68 Descending Denver Center
Mon 06:04:05 PM 38.9592 -109.8753 327° Northwest 463 533 32,000  Level Salt Lake Center
Mon 06:05:07 PM 39.0814 -109.9772 327° Northwest 467 537 32,000  Level Salt Lake Center
Mon 06:05:43 PM 39.1328 -110.0211 326° Northwest 465 535 32,000  Level Denver Center
Mon 06:06:57 PM 39.2436 -110.1417 320° Northwest 467 537 32,000  Level Denver Center
Mon 06:07:59 PM 39.3317 -110.2803 309° West 450 518 32,000  Level Denver Center
Mon 06:09:02 PM 39.4231 -110.4222 310° West 456 525 32,000  Level Denver Center
Mon 06:10:03 PM 39.5025 -110.5475 309° West 465 535 32,000  Level Denver Center
Mon 06:11:05 PM 39.5933 -110.6906 310° West 461 531 32,000 -532 Level Denver Center
Mon 06:12:07 PM 39.6722 -110.8144 310° West 463 533 30,900 -1,911 Descending Denver Center
Mon 06:13:20 PM 39.7789 -110.9831 309° West 471 542 27,700 -2,552 Descending Salt Lake Center
Mon 06:14:21 PM 39.8575 -111.1075 309° West 467 537 25,200 -2,488 Descending Salt Lake Center
Mon 06:15:23 PM 39.9472 -111.2517 309° West 461 531 22,600 -2,274 Descending Salt Lake Center
Mon 06:16:25 PM 40.0189 -111.3694 308° West 437 503 20,500 -1,756 Descending Salt Lake Center
Mon 06:17:26 PM 40.1006 -111.5006 309° West 422 486 19,000 -732 Descending Salt Lake Center
Mon 06:18:28 PM 40.1581 -111.6250 301° West 400 460 19,000  Level Salt Lake Center
Mon 06:18:57 PM 40.1806 -111.7017 291° West 398 458 19,000 -787 Level Salt Lake Center
Mon 06:19:29 PM 40.2067 -111.7522 304° West 392 451 18,200 -1,277 Descending Salt Lake Center
Mon 06:20:31 PM 40.2497 -111.8711 295° West 357 411 17,000 -809 Descending Salt Lake Center
Mon 06:20:58 PM 40.2750 -111.9367 297° West 372 428 17,000 -774 Level Salt Lake Center
Mon 06:21:33 PM 40.3175 -111.9731 327° Northwest 388 447 16,200 -1,855 Descending Salt Lake Center
Mon 06:21:53 PM 40.3603 -112.0092 327° Northwest 410 472 15,300 -1,180 Descending Salt Lake Center
Mon 06:22:34 PM 40.4153 -112.0436 335° Northwest 399 459 15,000 -1,631 Descending Salt Lake Center
Mon 06:23:36 PM 40.5375 -112.0678 351° North 390 449 12,500 -1,860 Descending Salt Lake Center
Mon 06:24:43 PM 40.6544 -112.0819 355° North 370 426 11,000 -709 Descending Salt Lake Center
Mon 06:25:43 PM 40.7450 -112.0936 354° North 339 390 11,000 -308 Level Salt Lake Center
Mon 06:26:40 PM 40.8236 -112.1000 356° North 277 319 10,400 -828 Descending Salt Lake Center
Mon 06:27:39 PM 40.8922 -112.0978 North 259 298 9,400 -1,017 Descending Salt Lake Center

Login

Don't have an account? Register now (free) for customized features, flight alerts, and more!